Time;durP1;ratioP1;P1;durP2;ratioP2;P2;SDS_P1;SDS_P2;PMS_P1;PMS_P2;Temp;Humidity;BMP_temperature;BMP_pressure;BME280_temperature;BME280_humidity;BME280_pressure;Samples;Min_cycle;Max_cycle;Signal;HPM_P1;HPM_P2
2021/06/12 00:01:04;;;;;;;4.85;4.45;;;;;;;18.05;72.86;99910.19;1809509;77;22174;-61
2021/06/12 00:03:50;;;;;;;5.33;4.33;;;;;;;17.98;72.79;99913.94;1732584;83;21326;-62
2021/06/12 00:06:24;;;;;;;4.80;4.35;;;;;;;17.98;72.90;99907.35;1833194;77;22126;-61
2021/06/12 00:08:59;;;;;;;5.67;3.77;;;;;;;17.97;73.09;99903.06;1768428;77;22423;-62
2021/06/12 00:11:33;;;;;;;4.67;4.28;;;;;;;17.96;73.31;99901.41;1822444;77;22135;-61
2021/06/12 00:14:06;;;;;;;5.12;4.72;;;;;;;17.96;73.52;99904.05;1764945;77;22180;-61
2021/06/12 00:16:41;;;;;;;4.90;4.45;;;;;;;17.95;73.66;99897.95;1772765;77;22163;-61
2021/06/12 00:19:16;;;;;;;4.95;4.50;;;;;;;17.94;73.69;99903.38;1790248;77;27213;-61
2021/06/12 00:22:01;;;;;;;5.12;4.62;;;;;;;17.89;73.72;99907.80;1768689;80;21728;-62
2021/06/12 00:24:36;;;;;;;5.60;4.78;;;;;;;17.92;73.81;99905.34;1793800;77;22203;-61
2021/06/12 00:27:10;;;;;;;4.90;4.35;;;;;;;17.91;73.91;99912.91;1806540;77;22112;-61
2021/06/12 00:29:57;;;;;;;5.42;4.20;;;;;;;17.86;73.83;99913.38;1741356;80;21218;-62
2021/06/12 00:32:30;;;;;;;4.67;4.28;;;;;;;17.90;73.85;99910.77;1783694;77;22151;-61
2021/06/12 00:35:07;;;;;;;4.33;4.03;;;;;;;17.91;73.80;99908.95;1816430;77;22480;-61
2021/06/12 00:37:42;;;;;;;6.58;4.90;;;;;;;17.89;73.71;99910.43;1801690;77;22147;-61
2021/06/12 00:40:19;;;;;;;5.33;4.92;;;;;;;17.87;73.58;99908.94;1791893;77;28087;-61
2021/06/12 00:42:54;;;;;;;5.47;4.97;;;;;;;17.94;73.46;99909.97;1780513;77;28837;-61
2021/06/12 00:45:45;;;;;;;4.50;4.20;;;;;;;18.01;73.29;99913.14;1762007;80;21079;-62
2021/06/12 00:48:17;;;;;;;5.10;4.70;;;;;;;18.11;73.07;99910.39;1789878;77;22163;-61
2021/06/12 00:50:52;;;;;;;5.75;5.22;;;;;;;18.09;73.13;99905.77;1827607;77;22596;-62
2021/06/12 00:53:48;;;;;;;4.95;4.55;;;;;;;18.07;73.28;99915.64;1785308;77;22199;-61
2021/06/12 00:56:18;;;;;;;4.75;4.35;;;;;;;18.01;73.39;99909.67;1747145;81;21483;-63
2021/06/12 00:58:53;;;;;;;4.12;3.85;;;;;;;18.03;73.59;99904.25;1801584;77;22131;-62
2021/06/12 01:01:27;;;;;;;4.78;4.25;;;;;;;18.01;73.79;99912.31;1805469;77;22103;-61
2021/06/12 01:04:02;;;;;;;4.50;4.10;;;;;;;18.01;73.93;99908.36;1781701;77;22135;-62
2021/06/12 01:06:38;;;;;;;4.90;4.50;;;;;;;18.00;73.93;99908.02;1792655;77;22189;-61
2021/06/12 01:09:12;;;;;;;4.28;3.98;;;;;;;17.98;73.89;99913.45;1808910;77;22127;-61
2021/06/12 01:12:23;;;;;;;4.90;4.50;;;;;;;17.97;73.66;99907.02;1801699;77;22103;-61
2021/06/12 01:15:04;;;;;;;4.20;3.90;;;;;;;17.94;73.65;99905.52;1765362;77;22151;-62
2021/06/12 01:18:04;;;;;;;5.30;4.25;;;;;;;17.91;73.58;99911.59;1779064;77;22175;-62
2021/06/12 01:21:05;;;;;;;5.45;4.37;;;;;;;17.89;73.41;99905.66;1787667;77;20529;-61
2021/06/12 01:24:26;;;;;;;5.05;4.60;;;;;;;17.85;73.21;99908.27;1791773;77;22171;-61
2021/06/12 01:27:43;;;;;;;4.55;4.25;;;;;;;17.81;73.14;99899.01;1817806;77;22445;-61
2021/06/12 01:30:20;;;;;;;4.40;4.00;;;;;;;17.79;73.30;99903.61;1804821;77;22116;-61
2021/06/12 01:32:59;;;;;;;4.70;4.20;;;;;;;17.76;73.40;99901.28;1825553;77;22517;-61
2021/06/12 01:35:56;;;;;;;4.43;3.87;;;;;;;17.68;73.32;99898.94;1763751;80;21397;-63
2021/06/12 01:38:34;;;;;;;6.12;4.90;;;;;;;17.72;73.23;99899.94;1804621;77;22121;-62
2021/06/12 01:41:09;;;;;;;4.90;4.28;;;;;;;17.68;73.19;99900.25;1810079;77;22111;-61
2021/06/12 01:43:43;;;;;;;6.05;4.15;;;;;;;17.67;73.16;99905.19;1815625;77;22132;-61
2021/06/12 01:46:29;;;;;;;5.00;4.50;;;;;;;17.62;73.12;99904.78;1745600;81;21461;-62
2021/06/12 01:49:03;;;;;;;4.17;3.87;;;;;;;17.65;73.18;99900.56;1824214;77;22386;-61
2021/06/12 01:51:38;;;;;;;4.60;4.20;;;;;;;17.65;73.28;99907.14;1792924;77;22164;-61
2021/06/12 01:54:23;;;;;;;4.58;4.17;;;;;;;17.61;73.44;99912.84;1733660;81;21070;-62
2021/06/12 01:56:58;;;;;;;6.17;5.47;;;;;;;17.64;73.69;99909.41;1798089;77;22150;-62
2021/06/12 01:59:33;;;;;;;6.97;5.87;;;;;;;17.62;73.83;99904.78;1801634;77;22179;-61
2021/06/12 02:02:07;;;;;;;7.85;6.67;;;;;;;17.61;73.99;99908.41;1807515;77;42521;-62
2021/06/12 02:04:42;;;;;;;7.40;6.08;;;;;;;17.61;74.10;99899.18;1798981;77;22108;-61
2021/06/12 02:07:17;;;;;;;5.65;5.15;;;;;;;17.60;74.17;99900.16;1817362;77;22171;-61
2021/06/12 02:10:04;;;;;;;5.65;4.70;;;;;;;17.55;74.28;99894.53;1748791;81;21132;-62
2021/06/12 02:12:40;;;;;;;5.45;4.95;;;;;;;17.59;74.39;99895.88;1777757;77;22214;-61
2021/06/12 02:15:15;;;;;;;4.95;4.55;;;;;;;17.57;74.36;99895.20;1769653;77;22595;-62
2021/06/12 02:17:52;;;;;;;5.62;4.95;;;;;;;17.56;74.48;99904.09;1804248;77;22141;-61
2021/06/12 02:20:26;;;;;;;6.97;5.95;;;;;;;17.55;74.54;99901.11;1792077;77;22143;-62
2021/06/12 02:23:05;;;;;;;7.37;6.00;;;;;;;17.55;74.50;99910.33;1793956;77;22786;-61
2021/06/12 02:25:51;;;;;;;8.38;7.58;;;;;;;17.49;74.41;99909.63;1738852;81;21215;-63
2021/06/12 02:28:34;;;;;;;8.33;7.45;;;;;;;17.53;74.23;99904.39;1804880;77;22166;-61
2021/06/12 02:31:10;;;;;;;7.10;6.40;;;;;;;17.53;74.02;99910.16;1832981;77;23204;-62
2021/06/12 02:33:56;;;;;;;5.67;5.17;;;;;;;17.48;73.98;99913.24;1707980;83;21743;-63
2021/06/12 02:36:32;;;;;;;6.17;5.53;;;;;;;17.52;74.03;99919.86;1794315;77;20396;-61
2021/06/12 02:39:07;;;;;;;7.45;6.55;;;;;;;17.54;73.96;99917.91;1796898;77;22166;-61
2021/06/12 02:41:52;;;;;;;9.53;8.03;;;;;;;17.52;73.93;99925.13;1798324;79;21107;-62
2021/06/12 02:44:46;;;;;;;12.43;8.90;;;;;;;17.57;73.82;99919.41;1843849;77;22204;-62
2021/06/12 02:47:21;;;;;;;11.73;8.95;;;;;;;17.56;73.62;99910.67;1833188;77;22118;-61
2021/06/12 02:49:56;;;;;;;15.40;12.45;;;;;;;17.57;73.53;99913.64;1828869;77;22144;-62
2021/06/12 02:52:33;;;;;;;15.53;12.60;;;;;;;17.56;73.49;99909.36;1794945;77;28481;-61
2021/06/12 02:55:08;;;;;;;14.40;11.57;;;;;;;17.64;73.44;99920.45;1787684;77;22273;-62
2021/06/12 02:57:49;;;;;;;12.50;9.75;;;;;;;17.69;73.32;99916.40;1803571;77;22155;-61
2021/06/12 03:00:24;;;;;;;9.13;8.20;;;;;;;17.68;73.29;99918.70;1825671;77;22499;-61
2021/06/12 03:02:58;;;;;;;9.65;8.65;;;;;;;17.67;73.36;99918.36;1764789;77;22129;-62
2021/06/12 03:05:36;;;;;;;8.45;7.65;;;;;;;17.66;73.28;99920.66;1782251;77;22148;-61
2021/06/12 03:08:12;;;;;;;7.40;6.62;;;;;;;17.65;73.28;99912.42;1809871;77;22476;-62
2021/06/12 03:10:57;;;;;;;6.92;5.33;;;;;;;17.63;73.16;99920.94;1746111;80;21050;-62
2021/06/12 03:13:32;;;;;;;5.97;5.37;;;;;;;17.67;73.14;99911.77;1802341;77;22562;-61
2021/06/12 03:16:06;;;;;;;5.55;5.15;;;;;;;17.68;73.38;99922.65;1796038;77;59624;-61
2021/06/12 03:18:47;;;;;;;5.20;4.78;;;;;;;17.71;73.51;99922.83;1800871;77;22162;-61
2021/06/12 03:21:33;;;;;;;4.67;4.28;;;;;;;17.66;73.69;99925.93;1742461;81;21473;-62
2021/06/12 03:24:09;;;;;;;5.30;4.87;;;;;;;17.74;73.78;99923.02;1823675;77;22141;-61
2021/06/12 03:26:44;;;;;;;6.78;6.17;;;;;;;17.76;73.92;99922.38;1799435;77;28132;-61
2021/06/12 03:29:20;;;;;;;7.67;6.83;;;;;;;17.83;73.91;99928.19;1791183;77;22212;-61
2021/06/12 03:31:56;;;;;;;14.20;10.35;;;;;;;17.89;73.69;99933.33;1774719;77;28348;-61
2021/06/12 03:34:41;;;;;;;15.60;10.05;;;;;;;17.94;73.54;99940.28;1728578;82;21076;-62
2021/06/12 03:37:17;;;;;;;12.78;9.63;;;;;;;18.04;73.30;99930.95;1785472;77;28077;-61
2021/06/12 03:39:52;;;;;;;9.80;7.58;;;;;;;18.12;73.21;99931.82;1804193;77;22611;-61
2021/06/12 03:42:38;;;;;;;7.05;6.35;;;;;;;18.14;73.05;99939.09;1760280;80;21071;-62
2021/06/12 03:45:13;;;;;;;7.30;6.12;;;;;;;18.19;73.17;99928.89;1850768;77;22528;-62
2021/06/12 03:47:48;;;;;;;6.55;5.95;;;;;;;18.18;73.04;99932.52;1829740;77;22139;-61
2021/06/12 03:50:25;;;;;;;6.80;6.20;;;;;;;18.18;73.00;99932.52;1757924;77;28187;-61
2021/06/12 03:53:11;;;;;;;5.30;4.80;;;;;;;18.21;73.05;99930.85;1735646;81;21121;-63
2021/06/12 03:55:48;;;;;;;4.85;4.45;;;;;;;18.30;72.80;99929.91;1791250;77;22147;-61
2021/06/12 03:58:23;;;;;;;5.00;4.60;;;;;;;18.31;72.71;99938.16;1787425;77;22551;-61
2021/06/12 04:00:57;;;;;;;4.35;4.05;;;;;;;18.30;72.62;99936.50;1775436;77;22442;-62
2021/06/12 04:03:32;;;;;;;5.08;4.62;;;;;;;18.30;72.72;99931.23;1782806;77;22140;-61
2021/06/12 04:06:08;;;;;;;4.87;4.47;;;;;;;18.31;72.62;99940.80;1807633;77;22179;-62
2021/06/12 04:08:42;;;;;;;4.22;3.92;;;;;;;18.31;72.53;99943.44;1793484;77;22542;-61
2021/06/12 04:11:28;;;;;;;4.50;4.10;;;;;;;18.29;72.67;99949.36;1731386;81;21441;-62
2021/06/12 04:14:03;;;;;;;4.80;4.30;;;;;;;18.35;72.74;99947.90;1797640;77;22103;-61
2021/06/12 04:16:38;;;;;;;4.65;4.30;;;;;;;18.37;72.77;99947.25;1779017;77;22508;-61
2021/06/12 04:19:13;;;;;;;4.55;4.15;;;;;;;18.39;72.66;99954.52;1807702;77;22139;-62
2021/06/12 04:21:58;;;;;;;4.67;4.03;;;;;;;18.39;72.63;99957.65;1749400;81;36818;-62
2021/06/12 04:24:36;;;;;;;4.72;4.33;;;;;;;18.46;72.77;99961.31;1791469;77;22143;-61
2021/06/12 04:27:12;;;;;;;4.70;4.30;;;;;;;18.49;72.63;99958.35;1812100;77;22162;-62
2021/06/12 04:29:46;;;;;;;5.45;4.37;;;;;;;18.49;72.56;99959.18;1794828;77;22139;-61
2021/06/12 04:32:21;;;;;;;4.92;4.50;;;;;;;18.52;72.50;99955.40;1814321;78;22301;-62
2021/06/12 04:35:08;;;;;;;4.17;3.77;;;;;;;18.50;72.44;99962.65;1782825;79;21469;-62
2021/06/12 04:37:43;;;;;;;4.75;4.37;;;;;;;18.57;72.31;99955.75;1812364;77;22152;-62
2021/06/12 04:40:18;;;;;;;4.10;3.80;;;;;;;18.61;72.31;99962.39;1784828;77;22180;-62
2021/06/12 04:42:53;;;;;;;4.33;4.03;;;;;;;18.65;72.24;99954.49;1795701;77;28583;-62
2021/06/12 04:45:28;;;;;;;4.45;4.05;;;;;;;18.68;72.10;99958.13;1785000;77;22186;-62
2021/06/12 04:48:13;;;;;;;6.87;4.22;;;;;;;18.67;71.98;99965.72;1743581;81;21147;-61
2021/06/12 04:50:48;;;;;;;4.87;4.55;;;;;;;18.76;71.71;99966.08;1812924;77;22496;-61
2021/06/12 04:53:22;;;;;;;4.17;3.70;;;;;;;18.80;71.47;99967.41;1798395;77;22163;-61
2021/06/12 04:55:59;;;;;;;4.72;4.28;;;;;;;18.84;71.30;99971.39;1775240;77;22159;-62
2021/06/12 04:58:44;;;;;;;4.40;4.10;;;;;;;18.85;71.22;99974.36;1748026;81;21050;-62
2021/06/12 05:01:18;;;;;;;4.42;3.33;;;;;;;18.93;71.19;99970.92;1773340;77;22158;-61
2021/06/12 05:03:53;;;;;;;5.35;4.22;;;;;;;18.96;71.12;99971.91;1838890;77;22847;-61
2021/06/12 05:06:28;;;;;;;4.95;4.50;;;;;;;18.99;71.01;99971.10;1798030;77;22578;-61
2021/06/12 05:09:14;;;;;;;4.33;3.95;;;;;;;19.01;70.78;99978.03;1752448;81;21491;-62
2021/06/12 05:11:48;;;;;;;4.80;4.37;;;;;;;19.10;70.48;99971.75;1793338;77;22172;-61
2021/06/12 05:14:23;;;;;;;4.92;4.25;;;;;;;19.15;70.27;99976.05;1834280;77;22148;-62
2021/06/12 05:17:01;;;;;;;4.42;4.03;;;;;;;19.19;70.11;99976.89;1784257;77;22139;-62
2021/06/12 05:19:34;;;;;;;4.80;4.40;;;;;;;19.24;69.83;99969.80;1781697;77;22179;-63
2021/06/12 05:22:09;;;;;;;4.12;3.83;;;;;;;19.29;69.63;99966.17;1820922;77;22094;-61
2021/06/12 05:24:43;;;;;;;4.53;4.12;;;;;;;19.34;69.36;99970.47;1793111;77;22163;-62
2021/06/12 05:27:18;;;;;;;4.60;4.15;;;;;;;19.39;69.00;99969.98;1773827;77;22167;-61
2021/06/12 05:29:51;;;;;;;4.42;4.10;;;;;;;19.43;68.68;99968.16;1786190;77;22158;-61
2021/06/12 05:32:37;;;;;;;5.85;3.55;;;;;;;19.42;68.43;99974.94;1732806;80;21028;-62
2021/06/12 05:35:11;;;;;;;3.65;3.42;;;;;;;19.49;68.30;99975.44;1790816;77;22136;-61
2021/06/12 05:37:46;;;;;;;5.15;3.87;;;;;;;19.54;68.16;99974.98;1788378;77;22155;-61
2021/06/12 05:40:21;;;;;;;4.40;3.95;;;;;;;19.58;68.01;99977.13;1772594;77;22195;-61
2021/06/12 05:43:06;;;;;;;3.90;3.60;;;;;;;19.58;67.83;99977.13;1752249;81;21118;-62
2021/06/12 05:45:47;;;;;;;4.85;4.33;;;;;;;19.66;67.72;99979.44;1785635;77;22156;-61
2021/06/12 05:48:24;;;;;;;4.15;3.85;;;;;;;19.67;67.78;99979.27;1809884;78;22072;-61
2021/06/12 05:50:57;;;;;;;4.20;3.90;;;;;;;19.70;67.89;99979.44;1789468;77;22557;-62
2021/06/12 05:53:33;;;;;;;4.58;4.17;;;;;;;19.74;68.06;99975.47;1799522;77;22526;-61
2021/06/12 05:56:18;;;;;;;4.85;3.77;;;;;;;19.74;68.08;99974.15;1734719;80;21240;-62
2021/06/12 05:58:53;;;;;;;4.78;3.60;;;;;;;19.86;67.96;99982.08;1785087;77;22445;-61
2021/06/12 06:01:27;;;;;;;4.15;3.62;;;;;;;19.91;67.67;99985.05;1823111;77;22095;-61
2021/06/12 06:04:03;;;;;;;4.53;4.17;;;;;;;19.96;67.07;99978.73;1788109;77;27966;-61
2021/06/12 06:06:38;;;;;;;4.42;3.67;;;;;;;20.05;66.76;99976.40;1802187;77;20162;-61
2021/06/12 06:09:13;;;;;;;3.80;3.47;;;;;;;20.12;66.31;99981.34;1805407;77;22171;-61
2021/06/12 06:11:48;;;;;;;3.37;3.12;;;;;;;20.14;66.14;99982.00;1787326;77;22649;-61
2021/06/12 06:14:23;;;;;;;4.30;3.90;;;;;;;20.15;65.97;99986.80;1771782;77;28155;-61
2021/06/12 06:16:58;;;;;;;3.92;3.62;;;;;;;20.22;65.83;99981.98;1780366;77;22859;-62
2021/06/12 06:19:43;;;;;;;3.65;3.35;;;;;;;20.22;65.39;99981.98;1749357;81;21077;-62
2021/06/12 06:22:19;;;;;;;4.70;4.20;;;;;;;20.26;65.12;99975.36;1775829;77;28343;-61
2021/06/12 06:24:54;;;;;;;4.00;3.70;;;;;;;20.36;65.10;99979.64;1770873;77;22163;-62
2021/06/12 06:27:39;;;;;;;3.98;3.67;;;;;;;20.36;64.76;99975.66;1729848;82;21107;-63
2021/06/12 06:30:16;;;;;;;3.67;3.37;;;;;;;20.41;64.78;99972.04;1779167;77;22199;-61
2021/06/12 06:32:49;;;;;;;3.62;3.30;;;;;;;20.45;64.66;99973.35;1793145;77;22567;-61
2021/06/12 06:35:35;;;;;;;4.58;4.17;;;;;;;20.41;64.47;99972.04;1728983;82;21085;-62
2021/06/12 06:38:10;;;;;;;4.30;4.00;;;;;;;20.47;64.08;99966.89;1794412;77;27983;-62
2021/06/12 06:40:45;;;;;;;4.28;3.35;;;;;;;20.52;64.01;99968.52;1783399;77;22151;-67
2021/06/12 06:43:31;;;;;;;4.05;3.75;;;;;;;20.54;63.44;99968.36;1730325;81;41221;-64
2021/06/12 06:46:04;;;;;;;4.83;4.22;;;;;;;20.59;62.49;99970.81;1851321;77;22544;-64
2021/06/12 06:48:38;;;;;;;4.28;3.98;;;;;;;20.59;61.86;99969.49;1819196;77;22173;-64
2021/06/12 06:51:24;;;;;;;4.20;3.45;;;;;;;20.55;61.87;99975.30;1796259;78;21134;-63
2021/06/12 06:53:58;;;;;;;4.15;3.75;;;;;;;20.62;61.75;99980.23;1796304;77;22796;-64
2021/06/12 06:56:31;;;;;;;4.28;3.87;;;;;;;20.68;61.75;99976.91;1829729;77;22153;-63
2021/06/12 06:59:05;;;;;;;3.58;3.27;;;;;;;20.73;61.71;99975.89;1812979;77;22168;-63
2021/06/12 07:01:50;;;;;;;4.90;4.15;;;;;;;20.76;61.80;99983.48;1756951;81;21145;-63
2021/06/12 07:04:24;;;;;;;3.77;3.47;;;;;;;20.86;61.32;99977.45;1827636;77;22529;-63
2021/06/12 07:06:59;;;;;;;4.62;3.25;;;;;;;20.89;61.09;99982.90;1794962;77;22134;-64
2021/06/12 07:09:33;;;;;;;3.47;3.12;;;;;;;20.92;60.31;99987.34;1830156;77;22149;-64
2021/06/12 07:12:21;;;;;;;3.00;2.55;;;;;;;20.83;59.68;99987.06;1791342;80;21149;-64
2021/06/12 07:14:54;;;;;;;3.45;3.12;;;;;;;20.80;60.38;99978.14;1812981;78;22212;-63
2021/06/12 07:17:29;;;;;;;3.45;3.20;;;;;;;20.82;60.33;99980.62;1815778;77;22581;-63
2021/06/12 07:20:04;;;;;;;3.50;3.20;;;;;;;20.90;60.29;99975.28;1828350;77;22157;-64
2021/06/12 07:22:37;;;;;;;3.62;3.33;;;;;;;20.94;59.21;99973.93;1820757;77;22209;-65
2021/06/12 07:25:22;;;;;;;2.95;2.80;;;;;;;20.88;59.39;99987.37;1767968;80;21611;-63
2021/06/12 07:27:56;;;;;;;3.20;3.00;;;;;;;20.93;59.60;99981.05;1836530;77;22588;-65
2021/06/12 07:30:34;;;;;;;3.98;2.72;;;;;;;21.00;59.72;99983.01;1830525;77;22208;-64
2021/06/12 07:33:07;;;;;;;3.58;3.05;;;;;;;21.14;58.85;99988.88;1814107;77;22188;-63
2021/06/12 07:35:41;;;;;;;3.55;3.12;;;;;;;21.25;58.96;99987.19;1825797;77;22164;-63
2021/06/12 07:38:27;;;;;;;2.87;2.67;;;;;;;21.34;57.89;100001.22;1810196;78;21121;-64
2021/06/12 07:41:01;;;;;;;2.50;2.40;;;;;;;21.41;58.23;99992.88;1821294;77;22448;-63
2021/06/12 07:43:34;;;;;;;3.20;2.90;;;;;;;21.47;57.74;99991.67;1803946;77;22255;-63
2021/06/12 07:46:09;;;;;;;6.00;2.62;;;;;;;21.49;57.24;99992.33;1820928;77;22474;-63
2021/06/12 07:48:45;;;;;;;2.47;2.37;;;;;;;21.46;57.47;99992.68;1834939;77;22197;-64
2021/06/12 07:51:21;;;;;;;2.75;2.55;;;;;;;21.45;57.81;99991.53;1797806;77;28473;-64
2021/06/12 07:53:58;;;;;;;4.47;2.83;;;;;;;21.51;57.40;99982.36;1803179;77;22565;-65
2021/06/12 07:56:31;;;;;;;3.37;2.70;;;;;;;21.61;57.20;99981.30;1806605;77;22201;-63
2021/06/12 07:59:07;;;;;;;2.22;2.00;;;;;;;21.64;56.97;99987.58;1803315;77;20405;-63
2021/06/12 08:01:42;;;;;;;3.45;2.47;;;;;;;21.68;56.63;99994.14;1821349;77;28352;-64
2021/06/12 08:04:29;;;;;;;2.72;2.62;;;;;;;21.65;55.71;99983.92;1791342;80;21302;-65
2021/06/12 08:07:04;;;;;;;2.80;2.60;;;;;;;21.63;55.57;99983.27;1803309;77;28109;-64
2021/06/12 08:09:40;;;;;;;2.70;2.50;;;;;;;21.61;56.01;99985.28;1813459;77;27982;-64
2021/06/12 08:12:28;;;;;;;2.80;2.60;;;;;;;21.61;56.44;99987.93;1782004;80;21481;-64
2021/06/12 08:15:01;;;;;;;7.20;2.52;;;;;;;21.68;55.87;99976.90;1815891;77;22157;-64
2021/06/12 08:17:54;;;;;;;2.10;2.00;;;;;;;21.64;54.91;99987.58;1834080;77;22235;-62
2021/06/12 08:20:29;;;;;;;2.15;2.05;;;;;;;21.55;56.03;99988.97;1820932;77;22212;-64
2021/06/12 08:23:07;;;;;;;2.65;2.35;;;;;;;21.56;55.14;99991.94;1799917;77;28046;-64
2021/06/12 08:25:44;;;;;;;2.20;2.10;;;;;;;21.58;55.13;99990.44;1834203;78;22179;-63
2021/06/12 08:28:18;;;;;;;2.12;2.02;;;;;;;21.61;54.83;99987.93;1826462;78;22168;-62
2021/06/12 08:30:53;;;;;;;3.35;2.20;;;;;;;21.54;55.47;99988.64;1816377;77;20391;-64
2021/06/12 08:33:41;;;;;;;2.75;2.55;;;;;;;21.50;55.46;100002.43;1771548;80;21137;-63
2021/06/12 08:36:16;;;;;;;2.52;2.25;;;;;;;21.49;56.06;99980.39;1822394;77;22170;-63
2021/06/12 08:38:52;;;;;;;2.47;2.37;;;;;;;21.46;56.64;99990.02;1795591;77;27713;-62
2021/06/12 08:41:27;;;;;;;1.92;1.82;;;;;;;21.51;55.00;99982.36;1788365;77;33849;-65
2021/06/12 08:44:13;;;;;;;2.22;2.12;;;;;;;21.50;54.89;99978.06;1743701;81;21149;-64
2021/06/12 08:46:49;;;;;;;2.77;2.58;;;;;;;21.60;55.16;99989.75;1820223;77;22616;-65
2021/06/12 08:49:23;;;;;;;1.67;1.57;;;;;;;21.65;55.17;99985.24;1810967;77;22157;-64
2021/06/12 08:52:13;;;;;;;2.35;2.15;;;;;;;21.66;54.68;99984.24;1777356;80;21082;-65
2021/06/12 08:54:49;;;;;;;2.10;2.00;;;;;;;21.74;54.94;99993.42;1809348;77;22196;-64
2021/06/12 08:57:25;;;;;;;2.42;2.33;;;;;;;21.71;54.82;99984.50;1829033;77;22171;-63
2021/06/12 09:00:01;;;;;;;2.62;2.42;;;;;;;21.71;54.58;99985.33;1811606;77;27979;-64
2021/06/12 09:03:22;;;;;;;2.17;2.08;;;;;;;21.73;53.55;99985.97;1797945;77;28047;-60
2021/06/12 09:06:01;;;;;;;2.83;2.17;;;;;;;21.83;53.70;99981.73;1818703;77;22200;-65
2021/06/12 09:08:41;;;;;;;1.90;1.80;;;;;;;21.82;53.49;99983.57;1825037;77;22177;-63
2021/06/12 09:11:20;;;;;;;2.22;2.10;;;;;;;21.81;54.54;99975.79;1812682;77;22624;-64
2021/06/12 09:14:01;;;;;;;2.02;1.90;;;;;;;21.77;54.60;99974.50;1773059;77;23272;-63
2021/06/12 09:16:47;;;;;;;;;;;;;;;21.72;53.52;99978.19;1742045;81;21699;-63
2021/06/12 09:19:21;;;;;;;3.37;2.25;;;;;;;21.74;53.48;99986.80;1810745;77;22197;-63
2021/06/12 09:21:59;;;;;;;1.57;1.47;;;;;;;21.71;54.15;99976.04;1811499;77;22184;-64
2021/06/12 09:24:45;;;;;;;1.80;1.70;;;;;;;21.76;54.04;99973.67;1832835;78;22150;-64
2021/06/12 09:27:31;;;;;;;2.08;1.98;;;;;;;21.70;53.97;99978.37;1773574;80;21513;-63
2021/06/12 09:30:07;;;;;;;2.00;1.90;;;;;;;21.68;54.28;99975.57;1814869;77;22189;-64
2021/06/12 09:32:45;;;;;;;2.00;1.90;;;;;;;21.67;53.02;99976.58;1796790;77;27918;-64
2021/06/12 09:35:18;;;;;;;2.10;2.00;;;;;;;21.76;52.33;99974.17;1823627;77;22138;-64
2021/06/12 09:37:53;;;;;;;1.70;1.60;;;;;;;21.80;52.32;99967.01;1796348;77;22168;-64
2021/06/12 09:40:31;;;;;;;1.85;1.75;;;;;;;21.82;51.57;99961.52;1803015;77;22176;-65
2021/06/12 09:43:07;;;;;;;1.47;1.37;;;;;;;21.83;51.11;99963.17;1793537;78;22197;-64
2021/06/12 09:45:53;;;;;;;3.70;2.12;;;;;;;21.81;51.23;99962.53;1777421;80;21661;-66
2021/06/12 09:48:27;;;;;;;1.72;1.62;;;;;;;21.88;51.54;99955.00;1822397;77;22153;-66
2021/06/12 09:51:14;;;;;;;2.33;2.12;;;;;;;21.90;52.02;99952.16;1794658;77;29238;-63
2021/06/12 09:53:53;;;;;;;2.70;2.50;;;;;;;21.93;52.54;99951.80;1801523;77;22145;-65
2021/06/12 09:56:40;;;;;;;4.40;2.47;;;;;;;21.93;52.74;99949.14;1772447;80;21705;-64
2021/06/12 09:59:19;;;;;;;2.75;2.60;;;;;;;21.99;52.79;99955.05;1809939;77;22137;-64
2021/06/12 10:01:52;;;;;;;2.95;2.65;;;;;;;21.99;53.53;99957.70;1813827;77;22181;-64
2021/06/12 10:04:27;;;;;;;3.40;2.52;;;;;;;22.02;53.07;99958.70;1750524;77;28191;-64
2021/06/12 10:07:01;;;;;;;4.10;2.72;;;;;;;22.06;52.71;99959.98;1813595;77;22216;-65
2021/06/12 10:09:47;;;;;;;3.02;2.77;;;;;;;22.03;52.19;99944.44;1784152;79;21584;-64
2021/06/12 10:12:22;;;;;;;3.15;2.50;;;;;;;22.06;52.22;99951.20;1819992;77;22587;-63
2021/06/12 10:14:58;;;;;;;2.87;2.60;;;;;;;22.06;52.58;99945.39;1730445;77;30081;-64
2021/06/12 10:17:52;;;;;;;2.65;2.45;;;;;;;22.10;52.41;99953.81;1704585;83;21121;-64
2021/06/12 10:20:27;;;;;;;3.30;3.10;;;;;;;22.19;51.75;99948.23;1792469;77;22186;-64
2021/06/12 10:23:02;;;;;;;3.47;3.22;;;;;;;22.22;52.20;99953.69;1767487;77;22179;-64
2021/06/12 10:25:37;;;;;;;2.80;2.60;;;;;;;22.23;52.65;99944.72;1809489;77;22261;-63
2021/06/12 10:28:14;;;;;;;3.67;3.08;;;;;;;22.26;52.86;99939.55;1810754;77;38711;-64
2021/06/12 10:31:16;;;;;;;6.90;3.35;;;;;;;22.27;53.28;99943.84;1792831;78;21141;-63
2021/06/12 10:33:52;;;;;;;2.40;2.20;;;;;;;22.30;52.94;99938.17;1820103;77;22174;-63
2021/06/12 10:36:31;;;;;;;2.70;2.50;;;;;;;22.28;52.58;99937.53;1770487;77;22213;-64
2021/06/12 10:39:29;;;;;;;2.67;2.47;;;;;;;22.23;52.72;99938.91;1721162;83;21161;-65
2021/06/12 10:42:19;;;;;;;3.52;2.35;;;;;;;22.31;50.09;99925.22;1794084;77;22232;-63
2021/06/12 10:45:02;;;;;;;2.62;2.15;;;;;;;22.31;49.94;99919.41;1821238;77;22210;-64
2021/06/12 10:47:43;;;;;;;2.50;2.27;;;;;;;22.32;48.20;99925.03;1832571;77;27967;-63
2021/06/12 10:50:31;;;;;;;2.20;2.02;;;;;;;22.43;48.40;99925.07;1831367;77;22211;-64
2021/06/12 10:53:33;;;;;;;2.10;2.00;;;;;;;22.50;47.36;99920.16;1807556;77;22583;-64
2021/06/12 10:56:19;;;;;;;2.05;1.95;;;;;;;22.57;47.71;99909.59;1821092;78;22245;-63
2021/06/12 10:59:05;;;;;;;1.95;1.85;;;;;;;22.55;47.72;99924.37;1779932;80;21133;-65
2021/06/12 11:02:06;;;;;;;1.60;1.60;;;;;;;22.64;46.75;99905.17;1804126;78;22252;-61
2021/06/12 11:07:43;;;;;;;2.08;1.98;;;;;;;22.78;46.74;99906.97;1829324;77;22533;-68
2021/06/12 11:10:22;;;;;;;2.22;2.12;;;;;;;22.85;46.66;99907.90;1817265;77;22219;-62
2021/06/12 11:12:57;;;;;;;2.30;2.10;;;;;;;22.91;46.55;99908.98;1740971;77;22570;-63
2021/06/12 11:15:43;;;;;;;2.00;1.67;;;;;;;22.88;46.90;99896.89;1723320;83;21643;-64
2021/06/12 11:21:07;;;;;;;2.50;2.40;;;;;;;23.09;47.44;99885.95;1820690;77;22208;-65
2021/06/12 11:23:54;;;;;;;2.35;2.15;;;;;;;23.11;47.26;99893.23;1790889;80;21148;-64
2021/06/12 11:26:27;;;;;;;3.02;2.45;;;;;;;23.22;47.00;99894.05;1792984;77;22219;-64
2021/06/12 11:29:09;;;;;;;2.10;2.00;;;;;;;23.28;47.31;99893.80;1813271;77;23388;-63
2021/06/12 11:31:45;;;;;;;2.02;1.92;;;;;;;23.38;46.46;99891.12;1820875;77;22565;-64
2021/06/12 11:34:32;;;;;;;2.47;2.25;;;;;;;23.41;46.92;99889.38;1794842;78;21207;-66
2021/06/12 11:37:18;;;;;;;1.77;1.67;;;;;;;23.57;46.53;99880.84;1813563;77;22224;-62
2021/06/12 11:39:54;;;;;;;2.37;2.20;;;;;;;23.68;45.35;99882.45;1799819;77;22184;-64
2021/06/12 11:42:47;;;;;;;2.22;2.12;;;;;;;23.77;45.84;99877.80;1809960;77;22897;-63
2021/06/12 11:45:38;;;;;;;2.22;1.98;;;;;;;23.81;45.97;99885.20;1810388;78;22189;-64
2021/06/12 11:48:25;;;;;;;2.58;2.37;;;;;;;23.77;45.73;99871.97;1781374;79;21608;-67
2021/06/12 11:50:59;;;;;;;2.52;2.42;;;;;;;23.88;45.75;99878.59;1811922;77;22435;-62
2021/06/12 11:53:35;;;;;;;2.33;2.12;;;;;;;23.94;46.05;99878.32;1818476;77;23381;-62
2021/06/12 11:56:11;;;;;;;2.20;2.10;;;;;;;24.02;44.81;99880.31;1815136;77;22217;-64
2021/06/12 11:58:59;;;;;;;2.50;2.30;;;;;;;24.03;44.73;99873.15;1771334;80;21296;-65
2021/06/12 12:02:05;;;;;;;2.10;2.00;;;;;;;24.17;44.67;99865.03;1813730;77;22895;-63
2021/06/12 12:04:46;;;;;;;2.10;2.00;;;;;;;24.21;44.60;99877.44;1817450;77;22209;-65
2021/06/12 12:07:19;;;;;;;2.40;2.12;;;;;;;24.16;44.29;99869.22;1811111;77;22266;-63
2021/06/12 12:10:05;;;;;;;2.22;2.08;;;;;;;24.07;44.43;99869.90;1779788;80;21164;-64
2021/06/12 12:12:40;;;;;;;2.35;2.15;;;;;;;24.09;44.69;99866.53;1803975;77;27988;-65
2021/06/12 12:15:41;;;;;;;3.15;2.42;;;;;;;24.16;44.74;99867.38;1805617;77;22203;-64
2021/06/12 12:18:16;;;;;;;2.50;2.30;;;;;;;24.28;45.22;99854.33;1816573;77;22220;-63
2021/06/12 12:20:57;;;;;;;2.52;2.35;;;;;;;24.41;43.40;99846.38;1806197;77;22476;-65
2021/06/12 12:23:37;;;;;;;2.52;2.33;;;;;;;24.47;43.86;99847.42;1780746;80;21323;-64
2021/06/12 12:26:21;;;;;;;1.92;1.82;;;;;;;24.60;42.96;99847.47;1820416;77;22207;-68
2021/06/12 12:29:06;;;;;;;2.62;2.52;;;;;;;24.56;42.87;99843.56;1818884;77;22219;-64
2021/06/12 12:32:01;;;;;;;2.20;2.10;;;;;;;24.59;43.62;99851.15;1823734;77;22591;-64
2021/06/12 12:34:38;;;;;;;2.17;2.08;;;;;;;24.59;42.91;99837.83;1827302;77;22193;-64
2021/06/12 12:37:24;;;;;;;3.25;2.83;;;;;;;24.48;44.03;99837.91;1800576;78;21554;-65